Cachoeira de Minas, Brazil
Current Conditions -  °F | °C
As of 12:00 AM on Thursday 23 Oct 2014 (Local Time) from SBSJ Reporting Station
Overcast Overcast  
Wind Chill: 66°   Ceiling: 2000
Heat Index: 66°   Visibility: 6mi
Dew Point: 55°   Wind: 10mph
Humidity: 68%   Direction: 130°SE
Pressure: 30.21"   Gusts: NA
Location:  22.36°S, 45.78°W
Report Text: SBSJ 230200Z 13009KT 9999 BKN020 OVC040 19/13 Q1023
Loading
Personal Weather Stations






























Interactive Weather Map
Tropical Storm Tracking
New forecast layout! Learn more

10-Day Weather Forecast

Advertisements
Track Severe Weather on mobile